sensor_id;sensor_type;location;lat;lon;timestamp;temperature;humidity
9403;DHT22;4741;49.834;10.740;2024-01-10T00:00:39;-6.90;99.90
9403;DHT22;4741;49.834;10.740;2024-01-10T00:03:05;-7.00;99.90
9403;DHT22;4741;49.834;10.740;2024-01-10T00:05:32;-6.90;99.90
9403;DHT22;4741;49.834;10.740;2024-01-10T00:07:59;-7.00;99.90
9403;DHT22;4741;49.834;10.740;2024-01-10T00:10:25;-7.00;99.90
9403;DHT22;4741;49.834;10.740;2024-01-10T00:12:52;-7.10;99.90
9403;DHT22;4741;49.834;10.740;2024-01-10T00:15:19;-7.20;99.90
9403;DHT22;4741;49.834;10.740;2024-01-10T00:17:45;-7.10;99.90
9403;DHT22;4741;49.834;10.740;2024-01-10T00:20:12;-7.00;99.90
9403;DHT22;4741;49.834;10.740;2024-01-10T00:22:39;-7.00;99.90
9403;DHT22;4741;49.834;10.740;2024-01-10T00:25:06;-7.00;99.90
9403;DHT22;4741;49.834;10.740;2024-01-10T00:27:32;-7.00;99.90
9403;DHT22;4741;49.834;10.740;2024-01-10T00:30:00;-7.10;99.90
9403;DHT22;4741;49.834;10.740;2024-01-10T00:32:26;-7.20;99.90
9403;DHT22;4741;49.834;10.740;2024-01-10T00:37:20;-7.40;99.90
9403;DHT22;4741;49.834;10.740;2024-01-10T00:39:47;-7.20;99.90
9403;DHT22;4741;49.834;10.740;2024-01-10T00:42:14;-7.30;99.90
9403;DHT22;4741;49.834;10.740;2024-01-10T00:44:40;-7.20;99.90
9403;DHT22;4741;49.834;10.740;2024-01-10T00:47:07;-7.20;99.90
9403;DHT22;4741;49.834;10.740;2024-01-10T00:49:34;-7.30;99.90
9403;DHT22;4741;49.834;10.740;2024-01-10T00:52:00;-7.30;99.90
9403;DHT22;4741;49.834;10.740;2024-01-10T00:54:27;-7.30;99.90
9403;DHT22;4741;49.834;10.740;2024-01-10T00:56:54;-7.40;99.90
9403;DHT22;4741;49.834;10.740;2024-01-10T00:59:20;-7.20;99.90
9403;DHT22;4741;49.834;10.740;2024-01-10T01:01:47;-7.30;99.90
9403;DHT22;4741;49.834;10.740;2024-01-10T01:04:13;-7.30;99.90
9403;DHT22;4741;49.834;10.740;2024-01-10T01:06:40;-7.30;99.90
9403;DHT22;4741;49.834;10.740;2024-01-10T01:09:07;-7.30;99.90
9403;DHT22;4741;49.834;10.740;2024-01-10T01:11:34;-7.30;99.90
9403;DHT22;4741;49.834;10.740;2024-01-10T01:14:00;-7.30;99.90
9403;DHT22;4741;49.834;10.740;2024-01-10T01:16:27;-7.40;99.90
9403;DHT22;4741;49.834;10.740;2024-01-10T01:18:54;-7.40;99.90
9403;DHT22;4741;49.834;10.740;2024-01-10T01:21:20;-7.40;99.90
9403;DHT22;4741;49.834;10.740;2024-01-10T01:23:47;-7.30;99.90
9403;DHT22;4741;49.834;10.740;2024-01-10T01:26:14;-7.40;99.90
9403;DHT22;4741;49.834;10.740;2024-01-10T01:28:41;-7.30;99.90
9403;DHT22;4741;49.834;10.740;2024-01-10T01:31:08;-7.30;99.90
9403;DHT22;4741;49.834;10.740;2024-01-10T01:33:34;-7.60;99.90
9403;DHT22;4741;49.834;10.740;2024-01-10T01:36:01;-7.40;99.90
9403;DHT22;4741;49.834;10.740;2024-01-10T01:38:28;-7.50;99.90
9403;DHT22;4741;49.834;10.740;2024-01-10T01:40:54;-7.40;99.90
9403;DHT22;4741;49.834;10.740;2024-01-10T01:43:22;-7.40;99.90
9403;DHT22;4741;49.834;10.740;2024-01-10T01:45:50;-7.30;99.90
9403;DHT22;4741;49.834;10.740;2024-01-10T01:48:17;-7.30;99.90
9403;DHT22;4741;49.834;10.740;2024-01-10T01:50:45;-7.40;99.90
9403;DHT22;4741;49.834;10.740;2024-01-10T01:53:13;-7.40;99.90
9403;DHT22;4741;49.834;10.740;2024-01-10T01:55:40;-7.30;99.90
9403;DHT22;4741;49.834;10.740;2024-01-10T01:58:07;-7.40;99.90
9403;DHT22;4741;49.834;10.740;2024-01-10T02:00:34;-7.40;99.90
9403;DHT22;4741;49.834;10.740;2024-01-10T02:03:01;-7.40;99.90
9403;DHT22;4741;49.834;10.740;2024-01-10T02:05:28;-7.40;99.90
9403;DHT22;4741;49.834;10.740;2024-01-10T02:07:54;-7.40;99.90
9403;DHT22;4741;49.834;10.740;2024-01-10T02:10:21;-7.50;99.90
9403;DHT22;4741;49.834;10.740;2024-01-10T02:12:49;-7.50;99.90
9403;DHT22;4741;49.834;10.740;2024-01-10T02:15:15;-7.40;99.90
9403;DHT22;4741;49.834;10.740;2024-01-10T02:17:43;-7.40;99.90
9403;DHT22;4741;49.834;10.740;2024-01-10T02:20:13;-7.40;99.90
9403;DHT22;4741;49.834;10.740;2024-01-10T02:22:41;-7.40;99.90
9403;DHT22;4741;49.834;10.740;2024-01-10T02:25:08;-7.40;99.90
9403;DHT22;4741;49.834;10.740;2024-01-10T02:27:38;-7.50;99.90
9403;DHT22;4741;49.834;10.740;2024-01-10T02:30:05;-7.50;99.90
9403;DHT22;4741;49.834;10.740;2024-01-10T02:32:32;-7.40;99.90
9403;DHT22;4741;49.834;10.740;2024-01-10T02:34:59;-7.40;99.90
9403;DHT22;4741;49.834;10.740;2024-01-10T02:37:26;-7.60;99.90
9403;DHT22;4741;49.834;10.740;2024-01-10T02:39:53;-7.70;99.90
9403;DHT22;4741;49.834;10.740;2024-01-10T02:42:19;-7.80;99.90
9403;DHT22;4741;49.834;10.740;2024-01-10T02:44:46;-7.70;99.90
9403;DHT22;4741;49.834;10.740;2024-01-10T02:47:12;-7.90;99.90
9403;DHT22;4741;49.834;10.740;2024-01-10T02:49:39;-7.90;99.90
9403;DHT22;4741;49.834;10.740;2024-01-10T02:52:06;-8.00;99.90
9403;DHT22;4741;49.834;10.740;2024-01-10T02:54:33;-8.10;99.90
9403;DHT22;4741;49.834;10.740;2024-01-10T02:56:59;-8.00;99.90
9403;DHT22;4741;49.834;10.740;2024-01-10T02:59:26;-7.90;99.90
9403;DHT22;4741;49.834;10.740;2024-01-10T03:01:53;-7.90;99.90
9403;DHT22;4741;49.834;10.740;2024-01-10T03:04:19;-8.10;99.90
9403;DHT22;4741;49.834;10.740;2024-01-10T03:06:46;-8.20;99.90
9403;DHT22;4741;49.834;10.740;2024-01-10T03:09:13;-8.10;99.90
9403;DHT22;4741;49.834;10.740;2024-01-10T03:11:39;-8.00;99.90
9403;DHT22;4741;49.834;10.740;2024-01-10T03:14:10;-8.00;99.90
9403;DHT22;4741;49.834;10.740;2024-01-10T03:16:37;-8.20;99.90
9403;DHT22;4741;49.834;10.740;2024-01-10T03:19:03;-8.20;99.90
9403;DHT22;4741;49.834;10.740;2024-01-10T03:21:31;-8.30;99.90
9403;DHT22;4741;49.834;10.740;2024-01-10T03:23:58;-8.30;99.90
9403;DHT22;4741;49.834;10.740;2024-01-10T03:26:25;-8.40;99.90
9403;DHT22;4741;49.834;10.740;2024-01-10T03:31:18;-8.40;99.90
9403;DHT22;4741;49.834;10.740;2024-01-10T03:33:45;-8.40;99.90
9403;DHT22;4741;49.834;10.740;2024-01-10T03:36:13;-8.30;99.90
9403;DHT22;4741;49.834;10.740;2024-01-10T03:38:43;-8.10;99.90
9403;DHT22;4741;49.834;10.740;2024-01-10T03:41:16;-8.10;99.90
9403;DHT22;4741;49.834;10.740;2024-01-10T03:43:43;-8.00;99.90
9403;DHT22;4741;49.834;10.740;2024-01-10T03:46:11;-8.20;99.90
9403;DHT22;4741;49.834;10.740;2024-01-10T03:48:37;-8.30;99.90
9403;DHT22;4741;49.834;10.740;2024-01-10T03:51:07;-8.10;99.90
9403;DHT22;4741;49.834;10.740;2024-01-10T03:53:33;-8.30;99.90
9403;DHT22;4741;49.834;10.740;2024-01-10T03:56:03;-8.20;99.90
9403;DHT22;4741;49.834;10.740;2024-01-10T03:58:30;-8.20;99.90
9403;DHT22;4741;49.834;10.740;2024-01-10T04:00:57;-8.30;99.90
9403;DHT22;4741;49.834;10.740;2024-01-10T04:03:23;-8.40;99.90
9403;DHT22;4741;49.834;10.740;2024-01-10T04:05:50;-8.40;99.90
9403;DHT22;4741;49.834;10.740;2024-01-10T04:08:17;-8.40;99.90
9403;DHT22;4741;49.834;10.740;2024-01-10T04:10:44;-8.60;99.90
9403;DHT22;4741;49.834;10.740;2024-01-10T04:13:11;-8.50;99.90
9403;DHT22;4741;49.834;10.740;2024-01-10T04:15:38;-8.50;99.90
9403;DHT22;4741;49.834;10.740;2024-01-10T04:18:04;-8.50;99.90
9403;DHT22;4741;49.834;10.740;2024-01-10T04:20:31;-8.00;99.90
9403;DHT22;4741;49.834;10.740;2024-01-10T04:22:58;-8.20;99.90
9403;DHT22;4741;49.834;10.740;2024-01-10T04:25:25;-8.40;99.90
9403;DHT22;4741;49.834;10.740;2024-01-10T04:27:52;-8.50;99.90
9403;DHT22;4741;49.834;10.740;2024-01-10T04:30:18;-8.40;99.90
9403;DHT22;4741;49.834;10.740;2024-01-10T04:32:45;-8.40;99.90
9403;DHT22;4741;49.834;10.740;2024-01-10T04:35:12;-8.60;99.90
9403;DHT22;4741;49.834;10.740;2024-01-10T04:37:38;-8.50;99.90
9403;DHT22;4741;49.834;10.740;2024-01-10T04:40:05;-8.50;99.90
9403;DHT22;4741;49.834;10.740;2024-01-10T04:42:34;-8.40;99.90
9403;DHT22;4741;49.834;10.740;2024-01-10T04:45:01;-8.60;99.90
9403;DHT22;4741;49.834;10.740;2024-01-10T04:47:28;-8.60;99.90
9403;DHT22;4741;49.834;10.740;2024-01-10T04:49:55;-8.40;99.90
9403;DHT22;4741;49.834;10.740;2024-01-10T04:52:22;-8.60;99.90
9403;DHT22;4741;49.834;10.740;2024-01-10T04:54:49;-8.50;99.90
9403;DHT22;4741;49.834;10.740;2024-01-10T04:57:16;-8.50;99.90
9403;DHT22;4741;49.834;10.740;2024-01-10T04:59:43;-8.00;99.90
9403;DHT22;4741;49.834;10.740;2024-01-10T05:02:10;-8.40;99.90
9403;DHT22;4741;49.834;10.740;2024-01-10T05:04:36;-8.40;99.90
9403;DHT22;4741;49.834;10.740;2024-01-10T05:07:03;-8.40;99.90
9403;DHT22;4741;49.834;10.740;2024-01-10T05:09:30;-8.50;99.90
9403;DHT22;4741;49.834;10.740;2024-01-10T05:11:56;-8.50;99.90
9403;DHT22;4741;49.834;10.740;2024-01-10T05:14:23;-8.60;99.90
9403;DHT22;4741;49.834;10.740;2024-01-10T05:16:50;-8.50;99.90
9403;DHT22;4741;49.834;10.740;2024-01-10T05:19:17;-8.60;99.90
9403;DHT22;4741;49.834;10.740;2024-01-10T05:21:43;-8.60;99.90
9403;DHT22;4741;49.834;10.740;2024-01-10T05:24:10;-8.60;99.90
9403;DHT22;4741;49.834;10.740;2024-01-10T05:26:37;-8.70;99.90
9403;DHT22;4741;49.834;10.740;2024-01-10T05:29:04;-8.60;99.90
9403;DHT22;4741;49.834;10.740;2024-01-10T05:31:30;-8.50;99.90
9403;DHT22;4741;49.834;10.740;2024-01-10T05:33:57;-8.70;99.90
9403;DHT22;4741;49.834;10.740;2024-01-10T05:36:24;-8.30;99.90
9403;DHT22;4741;49.834;10.740;2024-01-10T05:38:50;-8.90;99.90
9403;DHT22;4741;49.834;10.740;2024-01-10T05:41:18;-9.20;99.90
9403;DHT22;4741;49.834;10.740;2024-01-10T05:43:45;-9.00;99.90
9403;DHT22;4741;49.834;10.740;2024-01-10T05:46:12;-8.70;99.90
9403;DHT22;4741;49.834;10.740;2024-01-10T05:48:39;-8.70;99.90
9403;DHT22;4741;49.834;10.740;2024-01-10T05:51:06;-8.50;99.90
9403;DHT22;4741;49.834;10.740;2024-01-10T05:53:32;-8.70;99.90
9403;DHT22;4741;49.834;10.740;2024-01-10T05:55:59;-8.40;99.90
9403;DHT22;4741;49.834;10.740;2024-01-10T05:58:27;-8.60;99.90
9403;DHT22;4741;49.834;10.740;2024-01-10T06:00:53;-8.80;99.90
9403;DHT22;4741;49.834;10.740;2024-01-10T06:03:21;-8.70;99.90
9403;DHT22;4741;49.834;10.740;2024-01-10T06:05:48;-8.90;99.90
9403;DHT22;4741;49.834;10.740;2024-01-10T06:08:15;-8.70;99.90
9403;DHT22;4741;49.834;10.740;2024-01-10T06:10:42;-8.80;99.90
9403;DHT22;4741;49.834;10.740;2024-01-10T06:13:09;-8.70;99.90
9403;DHT22;4741;49.834;10.740;2024-01-10T06:15:35;-8.80;99.90
9403;DHT22;4741;49.834;10.740;2024-01-10T06:18:02;-8.90;99.90
9403;DHT22;4741;49.834;10.740;2024-01-10T06:20:30;-8.80;99.90
9403;DHT22;4741;49.834;10.740;2024-01-10T06:22:58;-8.70;99.90
9403;DHT22;4741;49.834;10.740;2024-01-10T06:25:25;-8.80;99.90
9403;DHT22;4741;49.834;10.740;2024-01-10T06:27:52;-8.70;99.90
9403;DHT22;4741;49.834;10.740;2024-01-10T06:30:19;-8.70;99.90
9403;DHT22;4741;49.834;10.740;2024-01-10T06:32:46;-8.70;99.90
9403;DHT22;4741;49.834;10.740;2024-01-10T06:35:12;-8.70;99.90
9403;DHT22;4741;49.834;10.740;2024-01-10T06:37:40;-8.70;99.90
9403;DHT22;4741;49.834;10.740;2024-01-10T06:40:07;-8.80;99.90
9403;DHT22;4741;49.834;10.740;2024-01-10T06:42:34;-8.70;99.90
9403;DHT22;4741;49.834;10.740;2024-01-10T06:45:00;-8.80;99.90
9403;DHT22;4741;49.834;10.740;2024-01-10T06:47:27;-8.80;99.90
9403;DHT22;4741;49.834;10.740;2024-01-10T06:49:54;-8.90;99.90
9403;DHT22;4741;49.834;10.740;2024-01-10T06:52:21;-9.00;99.90
9403;DHT22;4741;49.834;10.740;2024-01-10T06:54:47;-8.90;99.90
9403;DHT22;4741;49.834;10.740;2024-01-10T06:57:14;-8.80;99.90
9403;DHT22;4741;49.834;10.740;2024-01-10T06:59:41;-8.80;99.90
9403;DHT22;4741;49.834;10.740;2024-01-10T07:02:07;-8.90;99.90
9403;DHT22;4741;49.834;10.740;2024-01-10T07:04:36;-8.90;99.90
9403;DHT22;4741;49.834;10.740;2024-01-10T07:07:03;-8.90;99.90
9403;DHT22;4741;49.834;10.740;2024-01-10T07:09:30;-8.80;99.90
9403;DHT22;4741;49.834;10.740;2024-01-10T07:11:57;-8.90;99.90
9403;DHT22;4741;49.834;10.740;2024-01-10T07:14:23;-8.80;99.90
9403;DHT22;4741;49.834;10.740;2024-01-10T07:16:50;-8.80;99.90
9403;DHT22;4741;49.834;10.740;2024-01-10T07:19:18;-8.70;99.90
9403;DHT22;4741;49.834;10.740;2024-01-10T07:21:45;-8.70;99.90
9403;DHT22;4741;49.834;10.740;2024-01-10T07:24:11;-8.70;99.90
9403;DHT22;4741;49.834;10.740;2024-01-10T07:26:38;-8.80;99.90
9403;DHT22;4741;49.834;10.740;2024-01-10T07:29:05;-8.90;99.90
9403;DHT22;4741;49.834;10.740;2024-01-10T07:31:35;-8.90;99.90
9403;DHT22;4741;49.834;10.740;2024-01-10T07:34:02;-8.80;99.90
9403;DHT22;4741;49.834;10.740;2024-01-10T07:36:32;-8.60;99.90
9403;DHT22;4741;49.834;10.740;2024-01-10T07:39:00;-8.70;99.90
9403;DHT22;4741;49.834;10.740;2024-01-10T07:41:30;-8.70;99.90
9403;DHT22;4741;49.834;10.740;2024-01-10T07:43:56;-8.70;99.90
9403;DHT22;4741;49.834;10.740;2024-01-10T07:46:23;-8.60;99.90
9403;DHT22;4741;49.834;10.740;2024-01-10T07:48:50;-8.60;99.90
9403;DHT22;4741;49.834;10.740;2024-01-10T07:51:17;-8.50;99.90
9403;DHT22;4741;49.834;10.740;2024-01-10T07:53:43;-8.30;99.90
9403;DHT22;4741;49.834;10.740;2024-01-10T07:56:11;-8.20;99.90
9403;DHT22;4741;49.834;10.740;2024-01-10T07:58:39;-8.20;99.90
9403;DHT22;4741;49.834;10.740;2024-01-10T08:01:06;-8.20;99.90
9403;DHT22;4741;49.834;10.740;2024-01-10T08:03:32;-8.10;99.90
9403;DHT22;4741;49.834;10.740;2024-01-10T08:06:00;-8.10;99.90
9403;DHT22;4741;49.834;10.740;2024-01-10T08:08:26;-8.00;99.90
9403;DHT22;4741;49.834;10.740;2024-01-10T08:10:54;-7.90;99.90
9403;DHT22;4741;49.834;10.740;2024-01-10T08:13:20;-7.90;99.90
9403;DHT22;4741;49.834;10.740;2024-01-10T08:15:47;-7.80;99.90
9403;DHT22;4741;49.834;10.740;2024-01-10T08:18:14;-7.80;99.90
9403;DHT22;4741;49.834;10.740;2024-01-10T08:20:41;-7.70;99.90
9403;DHT22;4741;49.834;10.740;2024-01-10T08:23:08;-7.70;99.90
9403;DHT22;4741;49.834;10.740;2024-01-10T08:25:35;-7.60;99.90
9403;DHT22;4741;49.834;10.740;2024-01-10T08:28:01;-7.40;99.90
9403;DHT22;4741;49.834;10.740;2024-01-10T08:30:28;-7.40;99.90
9403;DHT22;4741;49.834;10.740;2024-01-10T08:32:55;-7.20;99.90
9403;DHT22;4741;49.834;10.740;2024-01-10T08:35:22;-7.10;99.90
9403;DHT22;4741;49.834;10.740;2024-01-10T08:37:54;-7.00;99.90
9403;DHT22;4741;49.834;10.740;2024-01-10T08:40:20;-6.50;99.90
9403;DHT22;4741;49.834;10.740;2024-01-10T08:42:52;-6.80;99.90
9403;DHT22;4741;49.834;10.740;2024-01-10T08:45:19;-6.70;99.90
9403;DHT22;4741;49.834;10.740;2024-01-10T08:47:45;-6.60;99.90
9403;DHT22;4741;49.834;10.740;2024-01-10T08:50:12;-6.50;99.90
9403;DHT22;4741;49.834;10.740;2024-01-10T08:52:39;-6.30;99.90
9403;DHT22;4741;49.834;10.740;2024-01-10T08:55:06;-6.10;99.90
9403;DHT22;4741;49.834;10.740;2024-01-10T08:57:37;-6.10;99.90
9403;DHT22;4741;49.834;10.740;2024-01-10T09:00:04;-6.00;99.90
9403;DHT22;4741;49.834;10.740;2024-01-10T09:02:33;-5.90;99.90
9403;DHT22;4741;49.834;10.740;2024-01-10T09:04:59;-5.80;99.90
9403;DHT22;4741;49.834;10.740;2024-01-10T09:07:26;-5.70;99.90
9403;DHT22;4741;49.834;10.740;2024-01-10T09:09:53;-5.60;99.90
9403;DHT22;4741;49.834;10.740;2024-01-10T09:12:20;-5.30;99.90
9403;DHT22;4741;49.834;10.740;2024-01-10T09:14:47;-5.20;99.90
9403;DHT22;4741;49.834;10.740;2024-01-10T09:17:14;-5.20;99.90
9403;DHT22;4741;49.834;10.740;2024-01-10T09:19:56;-5.00;99.90
9403;DHT22;4741;49.834;10.740;2024-01-10T09:22:25;-4.90;99.90
9403;DHT22;4741;49.834;10.740;2024-01-10T09:24:52;-4.90;99.90
9403;DHT22;4741;49.834;10.740;2024-01-10T09:27:19;-4.90;99.90
9403;DHT22;4741;49.834;10.740;2024-01-10T09:29:46;-4.70;99.90
9403;DHT22;4741;49.834;10.740;2024-01-10T09:32:12;-4.60;99.90
9403;DHT22;4741;49.834;10.740;2024-01-10T09:34:39;-4.50;99.90
9403;DHT22;4741;49.834;10.740;2024-01-10T09:37:06;-4.40;99.90
9403;DHT22;4741;49.834;10.740;2024-01-10T09:39:33;-4.30;99.90
9403;DHT22;4741;49.834;10.740;2024-01-10T09:42:00;-4.00;99.90
9403;DHT22;4741;49.834;10.740;2024-01-10T09:44:29;-3.90;99.90
9403;DHT22;4741;49.834;10.740;2024-01-10T09:46:56;-3.90;99.90
9403;DHT22;4741;49.834;10.740;2024-01-10T09:49:22;-3.60;99.90
9403;DHT22;4741;49.834;10.740;2024-01-10T09:51:51;-3.40;99.90
9403;DHT22;4741;49.834;10.740;2024-01-10T09:54:19;-3.00;99.90
9403;DHT22;4741;49.834;10.740;2024-01-10T09:56:47;-2.70;99.90
9403;DHT22;4741;49.834;10.740;2024-01-10T09:59:14;-2.50;99.90
9403;DHT22;4741;49.834;10.740;2024-01-10T10:01:41;-2.20;99.90
9403;DHT22;4741;49.834;10.740;2024-01-10T10:04:09;-1.70;99.90
9403;DHT22;4741;49.834;10.740;2024-01-10T10:06:37;-1.70;99.90
9403;DHT22;4741;49.834;10.740;2024-01-10T10:09:04;-1.60;99.90
9403;DHT22;4741;49.834;10.740;2024-01-10T10:11:33;-1.80;99.90
9403;DHT22;4741;49.834;10.740;2024-01-10T10:14:16;-1.40;99.90
9403;DHT22;4741;49.834;10.740;2024-01-10T10:16:43;-1.30;99.90
9403;DHT22;4741;49.834;10.740;2024-01-10T10:19:10;-1.10;99.90
9403;DHT22;4741;49.834;10.740;2024-01-10T10:21:46;-1.10;99.90
9403;DHT22;4741;49.834;10.740;2024-01-10T10:24:13;-1.00;99.90
9403;DHT22;4741;49.834;10.740;2024-01-10T10:26:44;-0.70;99.70
9403;DHT22;4741;49.834;10.740;2024-01-10T10:29:11;-0.70;99.70
9403;DHT22;4741;49.834;10.740;2024-01-10T10:31:38;-0.70;99.10
9403;DHT22;4741;49.834;10.740;2024-01-10T10:34:05;-0.60;98.90
9403;DHT22;4741;49.834;10.740;2024-01-10T10:36:32;-0.50;98.60
9403;DHT22;4741;49.834;10.740;2024-01-10T10:38:59;-0.40;98.40
9403;DHT22;4741;49.834;10.740;2024-01-10T10:41:28;-0.40;97.70
9403;DHT22;4741;49.834;10.740;2024-01-10T10:43:56;-0.40;98.00
9403;DHT22;4741;49.834;10.740;2024-01-10T10:46:23;-0.50;98.20
9403;DHT22;4741;49.834;10.740;2024-01-10T10:48:54;-0.40;97.90
9403;DHT22;4741;49.834;10.740;2024-01-10T10:51:27;-0.30;98.20
9403;DHT22;4741;49.834;10.740;2024-01-10T10:53:55;-0.20;97.70
9403;DHT22;4741;49.834;10.740;2024-01-10T10:56:23;-0.20;97.40
9403;DHT22;4741;49.834;10.740;2024-01-10T10:58:50;-0.10;97.80
9403;DHT22;4741;49.834;10.740;2024-01-10T11:01:18;0.10;97.30
9403;DHT22;4741;49.834;10.740;2024-01-10T11:03:45;0.10;97.30
9403;DHT22;4741;49.834;10.740;2024-01-10T11:06:14;0.50;97.50
9403;DHT22;4741;49.834;10.740;2024-01-10T11:08:49;0.60;96.80
9403;DHT22;4741;49.834;10.740;2024-01-10T11:14:01;1.40;96.00
9403;DHT22;4741;49.834;10.740;2024-01-10T11:23:59;1.70;95.00
9403;DHT22;4741;49.834;10.740;2024-01-10T11:26:26;1.70;95.00
9403;DHT22;4741;49.834;10.740;2024-01-10T11:28:53;1.60;94.70
9403;DHT22;4741;49.834;10.740;2024-01-10T11:31:27;1.70;94.70
9403;DHT22;4741;49.834;10.740;2024-01-10T11:33:55;2.30;94.00
9403;DHT22;4741;49.834;10.740;2024-01-10T11:36:22;2.60;93.40
9403;DHT22;4741;49.834;10.740;2024-01-10T11:41:23;3.00;93.00
9403;DHT22;4741;49.834;10.740;2024-01-10T11:49:09;4.20;89.70
9403;DHT22;4741;49.834;10.740;2024-01-10T11:51:36;4.20;90.20
9403;DHT22;4741;49.834;10.740;2024-01-10T11:54:03;6.00;86.60
9403;DHT22;4741;49.834;10.740;2024-01-10T11:56:39;6.50;83.60
9403;DHT22;4741;49.834;10.740;2024-01-10T11:59:10;5.40;85.70
9403;DHT22;4741;49.834;10.740;2024-01-10T12:01:38;5.10;85.60
9403;DHT22;4741;49.834;10.740;2024-01-10T12:04:05;5.20;84.70
9403;DHT22;4741;49.834;10.740;2024-01-10T12:06:45;3.50;88.70
9403;DHT22;4741;49.834;10.740;2024-01-10T12:09:14;2.80;90.00
9403;DHT22;4741;49.834;10.740;2024-01-10T12:11:41;2.50;91.10
9403;DHT22;4741;49.834;10.740;2024-01-10T12:14:10;4.00;90.30
9403;DHT22;4741;49.834;10.740;2024-01-10T12:16:37;4.00;89.40
9403;DHT22;4741;49.834;10.740;2024-01-10T12:19:05;4.10;90.70
9403;DHT22;4741;49.834;10.740;2024-01-10T12:21:32;4.20;88.40
9403;DHT22;4741;49.834;10.740;2024-01-10T12:23:58;4.70;88.70
9403;DHT22;4741;49.834;10.740;2024-01-10T12:26:25;5.10;86.60
9403;DHT22;4741;49.834;10.740;2024-01-10T12:28:58;5.20;87.40
9403;DHT22;4741;49.834;10.740;2024-01-10T12:31:29;6.50;84.20
9403;DHT22;4741;49.834;10.740;2024-01-10T12:33:56;7.60;81.90
9403;DHT22;4741;49.834;10.740;2024-01-10T12:36:23;7.40;80.40
9403;DHT22;4741;49.834;10.740;2024-01-10T12:38:50;6.90;79.60
9403;DHT22;4741;49.834;10.740;2024-01-10T12:41:17;9.10;78.30
9403;DHT22;4741;49.834;10.740;2024-01-10T12:43:53;9.60;74.80
9403;DHT22;4741;49.834;10.740;2024-01-10T12:46:23;9.40;74.80
9403;DHT22;4741;49.834;10.740;2024-01-10T12:49:02;9.50;73.10
9403;DHT22;4741;49.834;10.740;2024-01-10T12:51:29;8.20;75.80
9403;DHT22;4741;49.834;10.740;2024-01-10T12:53:57;9.60;74.50
9403;DHT22;4741;49.834;10.740;2024-01-10T12:56:25;9.40;73.00
9403;DHT22;4741;49.834;10.740;2024-01-10T12:58:52;9.30;73.70
9403;DHT22;4741;49.834;10.740;2024-01-10T13:01:20;9.60;72.60
9403;DHT22;4741;49.834;10.740;2024-01-10T13:03:46;9.30;72.50
9403;DHT22;4741;49.834;10.740;2024-01-10T13:06:15;8.80;75.00
9403;DHT22;4741;49.834;10.740;2024-01-10T13:08:42;9.40;72.40
9403;DHT22;4741;49.834;10.740;2024-01-10T13:11:10;9.70;73.40
9403;DHT22;4741;49.834;10.740;2024-01-10T13:13:37;8.90;73.80
9403;DHT22;4741;49.834;10.740;2024-01-10T13:16:04;9.70;72.20
9403;DHT22;4741;49.834;10.740;2024-01-10T13:18:31;8.90;72.00
9403;DHT22;4741;49.834;10.740;2024-01-10T13:20:58;9.00;73.00
9403;DHT22;4741;49.834;10.740;2024-01-10T13:23:24;9.50;73.30
9403;DHT22;4741;49.834;10.740;2024-01-10T13:25:51;10.30;68.20
9403;DHT22;4741;49.834;10.740;2024-01-10T13:28:18;10.30;69.60
9403;DHT22;4741;49.834;10.740;2024-01-10T13:30:45;10.40;69.10
9403;DHT22;4741;49.834;10.740;2024-01-10T13:33:12;11.20;67.00
9403;DHT22;4741;49.834;10.740;2024-01-10T13:38:07;10.90;67.00
9403;DHT22;4741;49.834;10.740;2024-01-10T13:40:35;11.70;69.40
9403;DHT22;4741;49.834;10.740;2024-01-10T13:45:29;11.80;64.40
9403;DHT22;4741;49.834;10.740;2024-01-10T13:47:56;11.80;64.60
9403;DHT22;4741;49.834;10.740;2024-01-10T13:50:23;12.30;65.70
9403;DHT22;4741;49.834;10.740;2024-01-10T13:52:51;11.50;65.80
9403;DHT22;4741;49.834;10.740;2024-01-10T13:55:18;11.20;65.80
9403;DHT22;4741;49.834;10.740;2024-01-10T13:57:44;11.80;65.90
9403;DHT22;4741;49.834;10.740;2024-01-10T14:00:11;11.60;66.00
9403;DHT22;4741;49.834;10.740;2024-01-10T14:02:41;11.30;65.40
9403;DHT22;4741;49.834;10.740;2024-01-10T14:05:08;11.70;67.30
9403;DHT22;4741;49.834;10.740;2024-01-10T14:07:36;11.10;65.60
9403;DHT22;4741;49.834;10.740;2024-01-10T14:10:04;11.80;66.00
9403;DHT22;4741;49.834;10.740;2024-01-10T14:12:32;11.00;65.30
9403;DHT22;4741;49.834;10.740;2024-01-10T14:14:59;10.70;65.70
9403;DHT22;4741;49.834;10.740;2024-01-10T14:19:55;10.30;66.20
9403;DHT22;4741;49.834;10.740;2024-01-10T14:22:22;10.40;66.10
9403;DHT22;4741;49.834;10.740;2024-01-10T14:27:27;9.10;69.70
9403;DHT22;4741;49.834;10.740;2024-01-10T14:29:54;10.20;70.20
9403;DHT22;4741;49.834;10.740;2024-01-10T14:32:20;8.80;71.00
9403;DHT22;4741;49.834;10.740;2024-01-10T14:34:48;9.90;72.50
9403;DHT22;4741;49.834;10.740;2024-01-10T14:37:15;9.00;70.50
9403;DHT22;4741;49.834;10.740;2024-01-10T14:39:42;8.80;71.50
9403;DHT22;4741;49.834;10.740;2024-01-10T14:42:08;7.90;73.10
9403;DHT22;4741;49.834;10.740;2024-01-10T14:44:35;5.90;77.10
9403;DHT22;4741;49.834;10.740;2024-01-10T14:47:02;4.70;81.10
9403;DHT22;4741;49.834;10.740;2024-01-10T14:49:37;4.00;83.60
9403;DHT22;4741;49.834;10.740;2024-01-10T14:52:05;3.60;86.00
9403;DHT22;4741;49.834;10.740;2024-01-10T14:54:31;3.20;87.00
9403;DHT22;4741;49.834;10.740;2024-01-10T14:56:58;2.90;87.70
9403;DHT22;4741;49.834;10.740;2024-01-10T14:59:25;2.50;88.40
9403;DHT22;4741;49.834;10.740;2024-01-10T15:02:06;2.20;90.00
9403;DHT22;4741;49.834;10.740;2024-01-10T15:04:37;1.90;90.70
9403;DHT22;4741;49.834;10.740;2024-01-10T15:07:05;1.70;90.80
9403;DHT22;4741;49.834;10.740;2024-01-10T15:09:31;1.50;91.10
9403;DHT22;4741;49.834;10.740;2024-01-10T15:11:58;1.40;91.40
9403;DHT22;4741;49.834;10.740;2024-01-10T15:14:25;1.40;91.70
9403;DHT22;4741;49.834;10.740;2024-01-10T15:16:52;1.30;92.00
9403;DHT22;4741;49.834;10.740;2024-01-10T15:19:20;1.10;92.40
9403;DHT22;4741;49.834;10.740;2024-01-10T15:21:47;0.90;93.40
9403;DHT22;4741;49.834;10.740;2024-01-10T15:24:14;0.90;94.30
9403;DHT22;4741;49.834;10.740;2024-01-10T15:26:43;0.80;94.70
9403;DHT22;4741;49.834;10.740;2024-01-10T15:29:10;0.60;94.90
9403;DHT22;4741;49.834;10.740;2024-01-10T15:31:36;0.50;95.30
9403;DHT22;4741;49.834;10.740;2024-01-10T15:34:03;0.40;95.50
9403;DHT22;4741;49.834;10.740;2024-01-10T15:36:30;0.30;96.00
9403;DHT22;4741;49.834;10.740;2024-01-10T15:38:57;0.10;96.40
9403;DHT22;4741;49.834;10.740;2024-01-10T15:41:23;-0.20;96.90
9403;DHT22;4741;49.834;10.740;2024-01-10T15:43:50;-0.40;97.70
9403;DHT22;4741;49.834;10.740;2024-01-10T15:46:17;-0.40;98.00
9403;DHT22;4741;49.834;10.740;2024-01-10T15:48:44;-0.50;98.30
9403;DHT22;4741;49.834;10.740;2024-01-10T15:51:11;-0.60;98.50
9403;DHT22;4741;49.834;10.740;2024-01-10T15:53:38;-0.70;99.00
9403;DHT22;4741;49.834;10.740;2024-01-10T15:56:04;-0.90;99.90
9403;DHT22;4741;49.834;10.740;2024-01-10T15:58:31;-1.10;99.90
9403;DHT22;4741;49.834;10.740;2024-01-10T16:00:59;-1.20;99.90
9403;DHT22;4741;49.834;10.740;2024-01-10T16:03:26;-1.20;99.90
9403;DHT22;4741;49.834;10.740;2024-01-10T16:05:53;-1.20;99.90
9403;DHT22;4741;49.834;10.740;2024-01-10T16:08:20;-1.30;99.90
9403;DHT22;4741;49.834;10.740;2024-01-10T16:10:46;-1.40;99.90
9403;DHT22;4741;49.834;10.740;2024-01-10T16:13:13;-1.40;99.90
9403;DHT22;4741;49.834;10.740;2024-01-10T16:15:40;-1.60;99.90
9403;DHT22;4741;49.834;10.740;2024-01-10T16:18:07;-1.80;99.90
9403;DHT22;4741;49.834;10.740;2024-01-10T16:20:34;-2.00;99.90
9403;DHT22;4741;49.834;10.740;2024-01-10T16:23:00;-1.90;99.90